Main page
METAR-TAF:

METAR-TAF

Airports :

Biju Patnaik International Airport

Bhubaneswar, India

latitude: 20-14-40N, longitude: 85-49-04E, elevation: 45 m

Current weather observation

The report was made 16 minutes ago, at 13:30 UTC
Wind 10 kt from the Southwest
Temperature 31°C
Humidity 79%
Pressure 1007 hPa
Visibility: 4000 m
Scattered clouds at a height of 1800 ft
Few clouds at a height of 3000 ft, Cumulonimbus.
haze

METAR: VEBS 201330Z 23010KT 4000 HZ SCT018 FEW030CB 31/27 Q1007 NOSIG

Time: 19:16 (13:46 UTC)

Forecast

The report was made 2 hours and 46 minutes ago, at 11:00 UTC
Forecast valid from 20 at 12 UTC to 20 at 21 UTC
Wind 12 kt from the South
Visibility: 4000 m
Scattered clouds at a height of 1800 ft
haze
Temporary
from 20 at 12 UTC to 20 at 16 UTC
Visibility: 1500 m
Scattered clouds at a height of 1500 ft
Few clouds at a height of 3000 ft, Cumulonimbus.
Broken clouds at a height of 9000 ft
thunderstorm, rain

TAF: VEBS 201100Z 2012/2021 18012KT 4000 HZ SCT018 TEMPO 2012/2016 1500 TSRA SCT015 FEW030CB BKN090

Weather observations and forecasts of more than 4000 airports (METAR and TAF reports).

The available stations are represented by yellow and red dots on the map.

Hover mouse over dot to see the name of the station.

Then click to see weather observations and forecasts.

To change the map : click on the green buttons with a black cross to zoom in, on the green button with a dash to zoom out, or on the green arrows for adjacent maps.


METAR-TAF: